Home > Products > Valid Products > TAF

000
FTUS44 KEWX 051138
TAFAUS
TAF
KAUS 051138Z 0512/0618 15005KT P6SM BKN015
     FM051800 17015KT P6SM BKN035
     FM060700 17010KT P6SM OVC015
     FM061000 17010KT P6SM OVC008
     FM061500 17012KT P6SM BKN015
     FM061700 17015KT P6SM BKN040=



000
FTUS44 KEWX 051138
TAFSAT
TAF
KSAT 051138Z 0512/0618 15010KT P6SM BKN015
     FM051700 16015KT P6SM BKN040
     FM060700 15010KT P6SM OVC015
     FM061000 15010KT P6SM OVC008
     FM061500 15012KT P6SM OVC015
     FM061700 15015KT P6SM BKN040=



000
FTUS44 KEWX 051138
TAFDRT
TAF
KDRT 051138Z 0512/0612 11010KT P6SM OVC150
     FM051700 13015KT P6SM SCT050
     FM060300 11010KT P6SM SCT050=



000
FTUS44 KEWX 051138
TAFAUS
TAF
KAUS 051138Z 0512/0618 15005KT P6SM BKN015
     FM051800 17015KT P6SM BKN035
     FM060700 17010KT P6SM OVC015
     FM061000 17010KT P6SM OVC008
     FM061500 17012KT P6SM BKN015
     FM061700 17015KT P6SM BKN040=



000
FTUS44 KEWX 051138
TAFDRT
TAF
KDRT 051138Z 0512/0612 11010KT P6SM OVC150
     FM051700 13015KT P6SM SCT050
     FM060300 11010KT P6SM SCT050=



000
FTUS44 KEWX 051138
TAFSAT
TAF
KSAT 051138Z 0512/0618 15010KT P6SM BKN015
     FM051700 16015KT P6SM BKN040
     FM060700 15010KT P6SM OVC015
     FM061000 15010KT P6SM OVC008
     FM061500 15012KT P6SM OVC015
     FM061700 15015KT P6SM BKN040=



000
FTUS44 KEWX 051053 AAA
TAFDRT
TAF AMD
KDRT 051053Z 0511/0606 11010KT P6SM OVC150
     FM051700 13015KT P6SM SCT040=



000
FTUS44 KEWX 050919 AAA
TAFSAT
TAF AMD
KSAT 050919Z 0509/0612 15012KT P6SM FEW030
     FM051100 15010KT P6SM BKN015
     FM051200 17005KT P6SM OVC008
     FM051400 17005KT P6SM BKN015
     FM051700 16015KT P6SM SCT040
     FM060700 15010KT P6SM OVC015
     FM061000 15010KT P6SM OVC008=



000
FTUS44 KEWX 050918 AAA
TAFAUS
TAF AMD
KAUS 050918Z 0509/0612 17010KT P6SM FEW150
     FM051100 17005KT P6SM OVC015
     FM051200 17005KT P6SM OVC008
     FM051400 18005KT P6SM BKN015
     FM051800 17015KT P6SM SCT035
     FM060700 17010KT P6SM OVC015
     FM061000 17010KT P6SM OVC008=



000
FTUS44 KEWX 050534
TAFSAT
TAF
KSAT 050534Z 0506/0612 15012KT P6SM FEW030
     FM050800 15010KT P6SM BKN015
     FM051000 17005KT P6SM OVC008
     FM051400 17005KT P6SM BKN015
     FM051700 16015KT P6SM SCT040
     FM060700 15010KT P6SM OVC015
     FM061000 15010KT P6SM OVC008=



000
FTUS44 KEWX 050534
TAFAUS
TAF
KAUS 050534Z 0506/0612 17010KT P6SM FEW150
     FM050700 17005KT P6SM OVC015
     FM051000 17005KT P6SM OVC008
     FM051400 18005KT P6SM BKN015
     FM051800 17015KT P6SM SCT035
     FM060700 17010KT P6SM OVC015
     FM061000 17010KT P6SM OVC008=



000
FTUS44 KEWX 050534
TAFDRT
TAF
KDRT 050534Z 0506/0606 11012KT P6SM FEW250
     FM051000 11010KT P6SM OVC015
     FM051700 13015KT P6SM SCT040=



000
FTUS44 KEWX 050249 AAA
TAFDRT
TAF AMD
KDRT 050249Z 0503/0524 11007KT P6SM FEW250
     FM051000 12010KT P6SM OVC015
     FM051700 13012KT P6SM SCT025 BKN035
     FM051900 13015KT P6SM SCT040=



000
FTUS44 KEWX 042335
TAFAUS
TAF
KAUS 042335Z 0500/0606 15013KT P6SM FEW040
     FM050700 17005KT P6SM OVC015
     FM051000 17006KT P6SM OVC008
     FM051400 18007KT P6SM BKN015
     FM051600 18012KT P6SM BKN025
     FM051800 17014KT P6SM SCT035=



000
FTUS44 KEWX 042335
TAFAUS
TAF
KAUS 042335Z 0500/0606 15013KT P6SM FEW040
     FM050700 17005KT P6SM OVC015
     FM051000 17006KT P6SM OVC008
     FM051400 18007KT P6SM BKN015
     FM051600 18012KT P6SM BKN025
     FM051800 17014KT P6SM SCT035=



000
FTUS44 KEWX 042335
TAFSAT
TAF
KSAT 042335Z 0500/0606 15012KT P6SM FEW050
     FM050700 15010KT P6SM BKN015
     FM051000 17005KT P6SM OVC008
     FM051400 17007KT P6SM BKN015
     FM051600 17012KT P6SM BKN025
     FM051800 16014KT P6SM SCT040=



000
FTUS44 KEWX 042335
TAFDRT
TAF
KDRT 042335Z 0500/0524 13013G22KT P6SM SCT050
     FM050400 11012KT P6SM FEW050
     FM051000 12010KT P6SM OVC015
     FM051700 13012KT P6SM SCT025 BKN035
     FM051900 13015KT P6SM SCT040=



000
FTUS44 KEWX 042335
TAFSAT
TAF
KSAT 042335Z 0500/0606 15012KT P6SM FEW050
     FM050700 15010KT P6SM BKN015
     FM051000 17005KT P6SM OVC008
     FM051400 17007KT P6SM BKN015
     FM051600 17012KT P6SM BKN025
     FM051800 16014KT P6SM SCT040=



000
FTUS44 KEWX 042335
TAFDRT
TAF
KDRT 042335Z 0500/0524 13013G22KT P6SM SCT050
     FM050400 11012KT P6SM FEW050
     FM051000 12010KT P6SM OVC015
     FM051700 13012KT P6SM SCT025 BKN035
     FM051900 13015KT P6SM SCT040=



000
FTUS44 KEWX 041739
TAFSAT
TAF
KSAT 041739Z 0418/0524 17011KT P6SM SCT030 BKN040
     FM050700 15010KT P6SM BKN015
     FM051000 15005KT P6SM OVC008
     FM051600 17012KT P6SM BKN025
     FM051800 16014KT P6SM BKN035=



000
FTUS44 KEWX 041739
TAFAUS
TAF
KAUS 041739Z 0418/0524 19014KT P6SM FEW025 SCT035 BKN250
     FM050700 17005KT P6SM OVC015
     FM051000 17006KT P6SM OVC008
     FM051600 18012KT P6SM BKN025
     FM051800 17014KT P6SM SCT035=



000
FTUS44 KEWX 041739
TAFDRT
TAF
KDRT 041739Z 0418/0518 13010KT P6SM FEW023 SCT035
     FM051000 12010KT P6SM OVC015
     FM051700 13012KT P6SM SCT025 BKN035=



000
FTUS44 KEWX 041600 AAB
TAFSAT
TAF AMD
KSAT 041600Z 0416/0518 16013KT P6SM BKN024 BKN035
     FM041700 15012KT P6SM BKN050
     FM050700 15010KT P6SM BKN015
     FM051000 15005KT P6SM OVC008
     FM051600 15012KT P6SM BKN025=



000
FTUS44 KEWX 041559 AAB
TAFAUS
TAF AMD
KAUS 041559Z 0416/0518 18012KT P6SM FEW021 SCT030 BKN250
     FM041700 17012KT P6SM SCT035
     FM050700 17005KT P6SM OVC015
     FM051000 17005KT P6SM OVC008
     FM051600 17012KT P6SM BKN025=



000
FTUS44 KEWX 041412 AAA
TAFSAT
TAF AMD
KSAT 041412Z 0414/0518 15010KT P6SM BKN012 BKN035 BKN250
     FM041700 15012KT P6SM BKN050
     FM050700 15010KT P6SM BKN015
     FM051000 15005KT P6SM OVC008
     FM051600 15012KT P6SM BKN025=



000
FTUS44 KEWX 041411 AAA
TAFAUS
TAF AMD
KAUS 041411Z 0414/0518 18013KT P6SM BKN015 BKN025 BKN030
     FM041700 17012KT P6SM SCT035
     FM050700 17005KT P6SM OVC015
     FM051000 17005KT P6SM OVC008
     FM051600 17012KT P6SM BKN025=



000
FTUS44 KEWX 041126
TAFSAT
TAF
KSAT 041126Z 0412/0518 15005KT P6SM BKN025
     FM041300 16005KT P6SM BKN008
     FM041500 16010KT P6SM BKN015
     FM041700 15012KT P6SM BKN050
     FM050700 15010KT P6SM BKN015
     FM051000 15005KT P6SM OVC008
     FM051600 15012KT P6SM BKN025=



000
FTUS44 KEWX 041126
TAFDRT
TAF
KDRT 041126Z 0412/0512 11010KT P6SM BKN015
     FM041700 13015KT P6SM SCT050
     FM051000 12010KT P6SM OVC015=



000
FTUS44 KEWX 041126
TAFAUS
TAF
KAUS 041126Z 0412/0518 20005KT P6SM FEW009 OVC015
     FM041400 18005KT P6SM BKN008
     FM041600 18005KT P6SM BKN015
     FM041700 17012KT P6SM SCT035
     FM050700 17005KT P6SM OVC015
     FM051000 17005KT P6SM OVC008
     FM051600 17012KT P6SM BKN025=



000
FTUS44 KEWX 041126
TAFSAT
TAF
KSAT 041126Z 0412/0518 15005KT P6SM BKN025
     FM041300 16005KT P6SM BKN008
     FM041500 16010KT P6SM BKN015
     FM041700 15012KT P6SM BKN050
     FM050700 15010KT P6SM BKN015
     FM051000 15005KT P6SM OVC008
     FM051600 15012KT P6SM BKN025=



000
FTUS44 KEWX 041126
TAFAUS
TAF
KAUS 041126Z 0412/0518 20005KT P6SM FEW009 OVC015
     FM041400 18005KT P6SM BKN008
     FM041600 18005KT P6SM BKN015
     FM041700 17012KT P6SM SCT035
     FM050700 17005KT P6SM OVC015
     FM051000 17005KT P6SM OVC008
     FM051600 17012KT P6SM BKN025=



000
FTUS44 KEWX 041126
TAFDRT
TAF
KDRT 041126Z 0412/0512 11010KT P6SM BKN015
     FM041700 13015KT P6SM SCT050
     FM051000 12010KT P6SM OVC015=



000
FTUS44 KEWX 041032 AAA
TAFDRT
TAF AMD
KDRT 041032Z 0411/0506 12012KT P6SM BKN080
     FM041200 11010KT P6SM BKN015
     FM041700 13015KT P6SM SCT050=



000
FTUS44 KEWX 041032 AAA
TAFDRT
TAF AMD
KDRT 041032Z 0411/0506 12012KT P6SM BKN080
     FM041200 11010KT P6SM BKN015
     FM041700 13015KT P6SM SCT050=



000
FTUS44 KEWX 041028 AAA
TAFSAT
TAF AMD
KSAT 041028Z 0410/0512 15005KT P6SM BKN015
      TEMPO 0410/0414 BKN008
     FM041500 16010KT P6SM BKN015
     FM041700 15012KT P6SM BKN050
     FM050700 15010KT P6SM BKN015=



000
FTUS44 KEWX 041028 AAA
TAFSAT
TAF AMD
KSAT 041028Z 0410/0512 15005KT P6SM BKN015
      TEMPO 0410/0414 BKN008
     FM041500 16010KT P6SM BKN015
     FM041700 15012KT P6SM BKN050
     FM050700 15010KT P6SM BKN015=



000
FTUS44 KEWX 041026 AAA
TAFAUS
TAF AMD
KAUS 041026Z 0410/0512 20005KT P6SM OVC015
     FM041200 18005KT 4SM BR BKN008
     FM041400 18005KT P6SM BKN015
     FM041600 17012KT P6SM SCT035
     FM050700 17005KT P6SM OVC015=



000
FTUS44 KEWX 041026 AAA
TAFAUS
TAF AMD
KAUS 041026Z 0410/0512 20005KT P6SM OVC015
     FM041200 18005KT 4SM BR BKN008
     FM041400 18005KT P6SM BKN015
     FM041600 17012KT P6SM SCT035
     FM050700 17005KT P6SM OVC015=



000
FTUS44 KEWX 040538
TAFDRT
TAF
KDRT 040538Z 0406/0506 12012KT P6SM BKN080
     FM041000 11010KT P6SM BKN015
     FM041300 11010KT P6SM OVC008
     FM041500 13010KT P6SM OVC015
     FM041700 13015KT P6SM SCT050=



000
FTUS44 KEWX 040538
TAFSAT
TAF
KSAT 040538Z 0406/0512 15010KT P6SM BKN250
     FM040700 15005KT P6SM BKN012
     FM040900 15005KT P6SM BKN008
     FM041500 16010KT P6SM BKN015
     FM041700 15012KT P6SM BKN050
     FM050700 15010KT P6SM BKN015=



000
FTUS44 KEWX 040538
TAFAUS
TAF
KAUS 040538Z 0406/0512 18005KT P6SM SCT150
     FM040700 18005KT P6SM BKN015
     FM040900 18005KT 4SM BR BKN008
     FM041400 18005KT P6SM BKN015
     FM041600 17012KT P6SM SCT035
     FM050700 17005KT P6SM OVC015=



000
FTUS44 KEWX 032339
TAFDRT
TAF
KDRT 032339Z 0400/0424 13015KT P6SM SCT060
     FM040100 12010KT P6SM FEW050
     FM041000 11009KT P6SM BKN015
     FM041300 11009KT P6SM OVC008
     FM041500 13009KT P6SM OVC015
     FM041700 14012KT P6SM SCT030
     FM042000 13015KT P6SM SCT050=



000
FTUS44 KEWX 032339
TAFAUS
TAF
KAUS 032339Z 0400/0506 18010KT P6SM FEW060 BKN250
     FM040700 18005KT P6SM BKN012
     FM040900 19005KT 6SM BR BKN008
     FM041100 18004KT 4SM BR OVC007
     FM041400 19007KT P6SM BKN015 BKN030
     FM041600 17012KT P6SM SCT035 SCT250
     FM042100 17015KT P6SM SCT050=



000
FTUS44 KEWX 032339
TAFSAT
TAF
KSAT 032339Z 0400/0506 15010KT P6SM SCT050 SCT250
     FM040500 15008KT P6SM BKN012
     FM040800 15007KT 6SM BR BKN008
     FM041500 16010KT P6SM BKN015 BKN030
     FM041700 16012KT P6SM SCT035 SCT250
     FM042100 14013KT P6SM BKN050=



000
FTUS44 KEWX 032222 AAA
TAFDRT
TAF AMD
KDRT 032222Z 0322/0418 14015KT P6SM SCT060
     FM040100 12010KT P6SM FEW050
     FM041300 11009KT P6SM BKN018
     FM041700 14012KT P6SM SCT030=



000
FTUS44 KEWX 031739
TAFAUS
TAF
KAUS 031739Z 0318/0424 18011KT P6SM FEW030
     FM040100 17008KT P6SM FEW050 BKN250
     FM040700 18005KT P6SM BKN012
     FM040900 19005KT 6SM BR BKN008
     FM041400 19007KT P6SM BKN015 BKN030
     FM041600 17012KT P6SM SCT035 SCT250=



000
FTUS44 KEWX 031739
TAFSAT
TAF
KSAT 031739Z 0318/0424 17009KT P6SM SCT030 BKN040 BKN250
     FM040500 15008KT P6SM BKN012
     FM040900 15007KT 6SM BR BKN008
     FM041500 16010KT P6SM BKN015 BKN030
     FM041700 16012KT P6SM SCT035 SCT250=



000
FTUS44 KEWX 031739
TAFDRT
TAF
KDRT 031739Z 0318/0418 14012KT P6SM SCT029
     FM040100 12010KT P6SM FEW050
     FM041300 11009KT P6SM BKN018
     FM041700 14012KT P6SM SCT030=



000
FTUS44 KEWX 031135
TAFSAT
TAF
KSAT 031135Z 0312/0418 17008KT P6SM BKN010 OVC022
      TEMPO 0312/0314 BKN007 OVC022
     FM031600 16014KT P6SM SCT035 BKN250
     FM040500 15008KT P6SM BKN012
     FM041600 16012KT P6SM SCT035 SCT250=



000
FTUS44 KEWX 031135
TAFAUS
TAF
KAUS 031135Z 0312/0418 17005KT P6SM BKN006
     FM031400 18010KT P6SM BKN011
     FM031600 17014KT P6SM SCT035 BKN250
     FM040100 17008KT P6SM FEW050 BKN250
     FM040700 18005KT P6SM BKN012
     FM041600 17012KT P6SM SCT035 SCT250=



000
FTUS44 KEWX 031135
TAFDRT
TAF
KDRT 031135Z 0312/0412 11005KT P6SM SCT012
     FM031300 12008KT P6SM BKN010
     FM031700 17015G25KT P6SM SCT040
     FM040100 12010KT P6SM FEW050=



000
FTUS44 KEWX 031135
TAFDRT
TAF
KDRT 031135Z 0312/0412 11005KT P6SM SCT012
     FM031300 12008KT P6SM BKN010
     FM031700 17015G25KT P6SM SCT040
     FM040100 12010KT P6SM FEW050=



000
FTUS44 KEWX 031135
TAFSAT
TAF
KSAT 031135Z 0312/0418 17008KT P6SM BKN010 OVC022
      TEMPO 0312/0314 BKN007 OVC022
     FM031600 16014KT P6SM SCT035 BKN250
     FM040500 15008KT P6SM BKN012
     FM041600 16012KT P6SM SCT035 SCT250=



000
FTUS44 KEWX 031135
TAFAUS
TAF
KAUS 031135Z 0312/0418 17005KT P6SM BKN006
     FM031400 18010KT P6SM BKN011
     FM031600 17014KT P6SM SCT035 BKN250
     FM040100 17008KT P6SM FEW050 BKN250
     FM040700 18005KT P6SM BKN012
     FM041600 17012KT P6SM SCT035 SCT250=



000
FTUS44 KEWX 031058 AAA
TAFDRT
TAF AMD
KDRT 031058Z 0311/0406 11005KT P6SM FEW012
     FM031300 12008KT P6SM BKN010
     FM031700 17015G25KT P6SM SCT040
     FM040100 12012KT P6SM FEW050=



000
FTUS44 KEWX 030953 AAB
TAFSAT
TAF AMD
KSAT 030953Z 0310/0412 17009KT P6SM BKN013 OVC020
      TEMPO 0312/0314 OVC007
     FM031600 16014KT P6SM SCT035
     FM040500 15008KT P6SM BKN012=



000
FTUS44 KEWX 030953 AAB
TAFSAT
TAF AMD
KSAT 030953Z 0310/0412 17009KT P6SM BKN013 OVC020
      TEMPO 0312/0314 OVC007
     FM031600 16014KT P6SM SCT035
     FM040500 15008KT P6SM BKN012=



000
FTUS44 KEWX 030722 AAA
TAFAUS
TAF AMD
KAUS 030722Z 0307/0412 16004KT P6SM BKN012 BKN018
     FM031000 17005KT P6SM OVC007
     FM031400 18010KT P6SM BKN015
     FM031600 17014KT P6SM SCT035
     FM040100 17008KT P6SM FEW050
     FM040720 18005KT P6SM BKN012=



000
FTUS44 KEWX 030722 AAA
TAFSAT
TAF AMD
KSAT 030722Z 0307/0412 17008KT P6SM BKN013 OVC020
     FM031000 18007KT P6SM OVC007
     FM031400 18010KT P6SM BKN015
     FM031600 16014KT P6SM SCT035
     FM040500 15008KT P6SM BKN012=



000
FTUS44 KEWX 030535
TAFDRT
TAF
KDRT 030535Z 0306/0406 11012KT P6SM OVC060
     FM030900 12009KT P6SM SCT020
     FM031200 12012KT P6SM BKN020
     FM031700 17015G25KT P6SM SCT040
     FM040100 12012KT P6SM SCT050=



000
FTUS44 KEWX 030535
TAFSAT
TAF
KSAT 030535Z 0306/0412 14010KT P6SM BKN015
     FM030800 15007KT P6SM OVC007
     FM031400 16010KT P6SM BKN015
     FM031600 16014KT P6SM SCT035
     FM040500 15008KT P6SM BKN012=



000
FTUS44 KEWX 030535
TAFAUS
TAF
KAUS 030535Z 0306/0412 16004KT P6SM FEW250
     FM030730 17005KT P6SM OVC007
     FM031400 18010KT P6SM BKN015
     FM031600 17014KT P6SM SCT035
     FM040100 17008KT P6SM FEW050
     FM040730 18005KT P6SM BKN008=



000
FTUS44 KEWX 030438 AAB
TAFSAT
TAF AMD
KSAT 030438Z 0305/0406 15008KT P6SM OVC018
     FM030800 15007KT P6SM OVC007
     FM031500 16010KT P6SM BKN015
     FM031800 16010G20KT P6SM SCT035=



000
FTUS44 KEWX 030438 AAB
TAFSAT
TAF AMD
KSAT 030438Z 0305/0406 15008KT P6SM OVC018
     FM030800 15007KT P6SM OVC007
     FM031500 16010KT P6SM BKN015
     FM031800 16010G20KT P6SM SCT035=



000
FTUS44 KEWX 030338 AAA
TAFSAT
TAF AMD
KSAT 030338Z 0304/0406 14008KT P6SM SCT020 BKN250
      TEMPO 0304/0306 BKN020
     FM030600 15010KT P6SM BKN015
     FM030800 15007KT P6SM OVC007
     FM031500 16010KT P6SM BKN015
     FM031800 16010G20KT P6SM SCT035=



000
FTUS44 KEWX 030335 AAA
TAFAUS
TAF AMD
KAUS 030335Z 0304/0406 18005KT P6SM FEW030 SCT250
     FM030600 16007KT P6SM BKN015
     FM030800 18007KT 6SM BR OVC007
     FM031400 19010KT P6SM BKN015
     FM031700 18010G20KT P6SM SCT035=



000
FTUS44 KEWX 022320
TAFAUS
TAF
KAUS 022320Z 0300/0406 18015KT P6SM SCT050 BKN250
     FM030600 16007KT P6SM BKN015
     FM030800 18007KT 6SM BR OVC007
     FM031400 19010KT P6SM BKN015
     FM031700 18010G20KT P6SM SCT035=



000
FTUS44 KEWX 022320
TAFDRT
TAF
KDRT 022320Z 0300/0324 13013G20KT P6SM FEW045
     FM030200 12011KT P6SM BKN250
     FM030900 12009KT P6SM SCT020
     FM031100 12010G20KT P6SM BKN020
     FM031700 17015G25KT P6SM SCT040=



000
FTUS44 KEWX 022320
TAFSAT
TAF
KSAT 022320Z 0300/0406 15015KT P6SM SCT045 BKN250
     FM030600 15010KT P6SM BKN015
     FM030800 15007KT P6SM OVC007
     FM031500 16010KT P6SM BKN015
     FM031800 16010G20KT P6SM SCT035=



000
FTUS44 KEWX 022136 AAB
TAFSAT
TAF AMD
KSAT 022136Z 0222/0324 15015G35KT P6SM VCSH SCT040 BKN250
     FM022230 15012KT P6SM SCT035 BKN250
     FM030600 15010KT P6SM BKN015
     FM030800 15007KT P6SM OVC007
     FM031500 16010KT P6SM BKN015
     FM031800 16010G20KT P6SM SCT035=



000
FTUS44 KEWX 021948 AAA
TAFDRT
TAF AMD
KDRT 021948Z 0220/0318 12015KT P6SM SCT040
     FM030200 12011KT P6SM BKN250
     FM030900 12009KT P6SM SCT020
     FM031100 12010G20KT P6SM BKN020
     FM031700 17015G25KT P6SM SCT040=



000
FTUS44 KEWX 021914 AAA
TAFSAT
TAF AMD
KSAT 021914Z 0219/0324 17014KT P6SM VCSH SCT035 BKN250
     FM030000 15012KT P6SM SCT035 BKN250
     FM030600 15010KT P6SM BKN015
     FM030800 15007KT P6SM OVC007
     FM031500 16010KT P6SM BKN015
     FM031800 16010G20KT P6SM SCT035=



000
FTUS44 KEWX 021734
TAFDRT
TAF
KDRT 021734Z 0218/0318 12012G22KT P6SM SCT025 BKN035
     FM030200 12011KT P6SM BKN250
     FM030900 12009KT P6SM SCT020
     FM031100 12010G20KT P6SM BKN020
     FM031700 17015G25KT P6SM SCT040=



000
FTUS44 KEWX 021734
TAFSAT
TAF
KSAT 021734Z 0218/0324 15012G22KT P6SM BKN030 BKN250
     FM030000 15012KT P6SM SCT035 BKN250
     FM030600 15010KT P6SM BKN015
     FM030800 15007KT P6SM OVC007
     FM031500 16010KT P6SM BKN015
     FM031800 16010G20KT P6SM SCT035=



000
FTUS44 KEWX 021734
TAFAUS
TAF
KAUS 021734Z 0218/0324 19012G22KT P6SM SCT035 BKN250
     FM030000 16010KT P6SM BKN250
     FM030600 16007KT P6SM BKN015
     FM030800 18007KT 6SM BR OVC007
     FM031400 19010KT P6SM BKN015
     FM031700 18010G20KT P6SM SCT035=



000
FTUS44 KEWX 021505 AAA
TAFAUS
TAF AMD
KAUS 021505Z 0215/0318 18010KT P6SM SCT025 SCT250
     FM021800 17012G22KT P6SM BKN040
     FM030000 16010KT P6SM BKN250
     FM030600 16009KT P6SM BKN025 BKN250
     FM030800 17007KT 6SM BR OVC007=



000
FTUS44 KEWX 021505 AAA
TAFSAT
TAF AMD
KSAT 021505Z 0215/0318 16011KT P6SM BKN020
     FM021700 16012G22KT P6SM BKN040
     FM022000 16015KT P6SM SCT050
     FM030100 14012KT P6SM BKN250
     FM030600 14009KT P6SM OVC015
     FM031000 15008KT P6SM OVC007=



000
FTUS44 KEWX 021505 AAA
TAFDRT
TAF AMD
KDRT 021505Z 0215/0312 13010G20KT P6SM SCT025
     FM021600 14012G22KT P6SM BKN040
     FM030200 12011KT P6SM BKN250
     FM030900 12009KT P6SM SCT020=



000
FTUS44 KEWX 021505 AAA
TAFAUS
TAF AMD
KAUS 021505Z 0215/0318 18010KT P6SM SCT025 SCT250
     FM021800 17012G22KT P6SM BKN040
     FM030000 16010KT P6SM BKN250
     FM030600 16009KT P6SM BKN025 BKN250
     FM030800 17007KT 6SM BR OVC007=



000
FTUS44 KEWX 021505 AAA
TAFDRT
TAF AMD
KDRT 021505Z 0215/0312 13010G20KT P6SM SCT025
     FM021600 14012G22KT P6SM BKN040
     FM030200 12011KT P6SM BKN250
     FM030900 12009KT P6SM SCT020=



000
FTUS44 KEWX 021505 AAA
TAFSAT
TAF AMD
KSAT 021505Z 0215/0318 16011KT P6SM BKN020
     FM021700 16012G22KT P6SM BKN040
     FM022000 16015KT P6SM SCT050
     FM030100 14012KT P6SM BKN250
     FM030600 14009KT P6SM OVC015
     FM031000 15008KT P6SM OVC007=



    US Dept of Commerce
    National Oceanic and Atmospheric Administration
    National Weather Service
    1325 East West Highway
    Silver Spring, MD 20910
    Page Author: NWS Internet Services Team
Disclaimer
Information Quality
Credits
Glossary
Privacy Policy
Freedom of Information Act (FOIA)
About Us
Career Opportunities